BYB weather

Dibba Airport
Dibba Al-Baya, Musandam Governorate, Oman

Public forecast

Using degrees Celsius for public forecast. Weather courtesy of forecast.io.

METAR (pilot weather report)

Closest report is Ras Al Khaimah International Airport, 16.5 nm (30.6 km) W. Retrieved 2019/04/20 20:00 UTC (17 minutes ago):

OMRK 202000Z 18004KT CAVOK 26/13 Q1006 A2973

TAF (pilot weather forecast)

Closest forecast is Ras Al Khaimah International Airport, 16.5 nm (30.6 km) W. Retrieved 2019/04/20 18:00 UTC (2 hours ago):

TAF OMRK 201651Z 2018/2200 20005KT 8000 NSC BECMG 2108/2110 34013KT BECMG 2115/2117 09005KT